createdAt,value
2022-08-10T00:01:53.721Z,36.34
2022-08-10T00:04:23.871Z,36.22
2022-08-10T00:06:55.336Z,36.33
2022-08-10T00:09:24.913Z,36.55
2022-08-10T00:11:53.334Z,36.63
2022-08-10T00:14:23.342Z,36.77
2022-08-10T00:16:51.949Z,36.79
2022-08-10T00:19:20.354Z,36.87
2022-08-10T00:21:51.591Z,36.90
2022-08-10T00:24:20.029Z,37.12
2022-08-10T00:27:52.061Z,36.85
2022-08-10T00:29:38.657Z,37.09
2022-08-10T00:32:07.788Z,37.25
2022-08-10T00:34:36.575Z,37.27
2022-08-10T00:37:05.532Z,37.38
2022-08-10T00:39:36.010Z,37.39
2022-08-10T00:42:09.358Z,37.68
2022-08-10T00:44:41.189Z,37.42
2022-08-10T00:47:21.333Z,37.72
2022-08-10T00:49:59.657Z,37.56
2022-08-10T00:52:30.902Z,37.67
2022-08-10T00:55:00.420Z,37.83
2022-08-10T00:57:29.825Z,38.24
2022-08-10T01:00:00.498Z,38.07
2022-08-10T01:02:32.281Z,38.24
2022-08-10T01:05:04.442Z,38.39
2022-08-10T01:08:05.937Z,38.30
2022-08-10T01:10:45.366Z,38.40
2022-08-10T01:13:23.119Z,38.74
2022-08-10T01:16:02.322Z,39.05
2022-08-10T01:18:48.589Z,39.04
2022-08-10T01:21:54.255Z,39.27
2022-08-10T01:24:55.305Z,39.29
2022-08-10T01:27:34.870Z,39.63
2022-08-10T01:30:10.176Z,39.67
2022-08-10T01:32:48.811Z,39.58
2022-08-10T01:35:25.573Z,39.78
2022-08-10T01:38:04.602Z,39.91
2022-08-10T01:40:38.063Z,39.98
2022-08-10T01:43:11.053Z,40.14
2022-08-10T01:45:46.270Z,40.08
2022-08-10T01:48:29.103Z,40.19
2022-08-10T01:51:05.836Z,40.33
2022-08-10T01:53:41.872Z,40.38
2022-08-10T01:56:14.165Z,40.68
2022-08-10T01:58:45.068Z,40.88
2022-08-10T02:01:19.770Z,40.67
2022-08-10T02:04:05.330Z,41.04
2022-08-10T02:06:39.525Z,40.99
2022-08-10T02:09:10.001Z,41.09
2022-08-10T02:12:06.166Z,41.21
2022-08-10T02:14:34.499Z,41.32
2022-08-10T02:17:08.990Z,41.34
2022-08-10T02:20:03.196Z,41.36
2022-08-10T02:22:38.310Z,41.56
2022-08-10T02:25:39.993Z,41.43
2022-08-10T02:28:01.018Z,41.87
2022-08-10T02:30:31.842Z,41.94
2022-08-10T02:33:03.566Z,41.79
2022-08-10T02:35:54.707Z,42.23
2022-08-10T02:38:58.495Z,42.50
2022-08-10T02:45:02.776Z,42.49
2022-08-10T02:45:22.692Z,42.84
2022-08-10T02:47:26.898Z,42.83
2022-08-10T02:50:16.135Z,42.99
2022-08-10T02:52:51.514Z,42.96
2022-08-10T02:55:32.404Z,42.99
2022-08-10T02:58:16.636Z,43.10
2022-08-10T03:00:52.854Z,43.16
2022-08-10T03:03:25.808Z,43.40
2022-08-10T03:06:00.671Z,43.33
2022-08-10T03:08:33.481Z,43.16
2022-08-10T03:11:06.005Z,43.45
2022-08-10T03:13:36.945Z,43.78
2022-08-10T03:16:06.398Z,43.87
2022-08-10T03:18:35.477Z,44.11
2022-08-10T03:21:11.309Z,44.16
2022-08-10T03:23:42.513Z,43.86
2022-08-10T03:26:12.668Z,44.21
2022-08-10T03:28:41.897Z,43.95
2022-08-10T03:31:10.957Z,44.08
2022-08-10T03:33:42.705Z,44.31
2022-08-10T03:36:43.727Z,44.18
2022-08-10T03:39:01.734Z,44.41
2022-08-10T03:41:36.945Z,44.29
2022-08-10T03:44:07.993Z,44.28
2022-08-10T03:46:39.942Z,44.68
2022-08-10T03:49:08.879Z,44.45
2022-08-10T03:51:39.464Z,44.86
2022-08-10T03:54:08.870Z,44.94
2022-08-10T03:56:39.649Z,44.74
2022-08-10T03:59:10.235Z,44.73
2022-08-10T04:02:46.316Z,44.71
2022-08-10T04:04:27.716Z,44.89
2022-08-10T04:06:59.756Z,44.68
2022-08-10T04:09:54.414Z,44.93
2022-08-10T04:12:19.676Z,45.13
2022-08-10T04:14:52.381Z,45.25
2022-08-10T04:17:57.138Z,45.06
2022-08-10T04:20:20.831Z,44.92
2022-08-10T04:22:54.662Z,44.91
2022-08-10T04:25:25.720Z,44.88
2022-08-10T04:27:55.286Z,45.26
2022-08-10T04:30:24.869Z,45.14
2022-08-10T04:32:58.963Z,45.22
2022-08-10T04:35:30.160Z,45.09
2022-08-10T04:38:02.925Z,44.93
2022-08-10T04:40:31.872Z,44.98
2022-08-10T04:43:08.976Z,45.27
2022-08-10T04:45:50.609Z,45.17
2022-08-10T04:48:41.252Z,45.08
2022-08-10T04:51:16.902Z,45.18
2022-08-10T04:54:04.080Z,45.51
2022-08-10T04:56:37.625Z,45.43
2022-08-10T04:59:08.252Z,45.33
2022-08-10T05:02:27.087Z,45.47
2022-08-10T05:04:36.542Z,45.43
2022-08-10T05:07:16.972Z,45.34
2022-08-10T05:10:02.032Z,45.36
2022-08-10T05:12:37.318Z,45.40
2022-08-10T05:15:09.703Z,45.45
2022-08-10T05:17:40.180Z,45.62
2022-08-10T05:20:11.872Z,45.61
2022-08-10T05:22:42.954Z,45.80
2022-08-10T05:25:15.584Z,45.83
2022-08-10T05:27:45.233Z,45.90
2022-08-10T05:30:17.112Z,45.91
2022-08-10T05:32:56.484Z,45.85
2022-08-10T05:35:51.824Z,45.87
2022-08-10T05:38:19.639Z,46.08
2022-08-10T05:40:51.327Z,45.91
2022-08-10T05:43:22.872Z,46.11
2022-08-10T05:46:18.959Z,46.04
2022-08-10T05:48:59.080Z,45.94
2022-08-10T05:51:30.758Z,45.97
2022-08-10T05:54:04.868Z,45.83
2022-08-10T05:56:53.742Z,45.78
2022-08-10T06:00:30.915Z,46.01
2022-08-10T06:02:32.051Z,45.69
2022-08-10T06:05:09.945Z,45.58
2022-08-10T06:07:47.758Z,45.62
2022-08-10T06:10:31.690Z,45.44
2022-08-10T06:13:30.025Z,45.31
2022-08-10T06:16:07.365Z,45.50
2022-08-10T06:18:37.070Z,45.53
2022-08-10T06:21:06.473Z,45.36
2022-08-10T06:23:37.218Z,45.13
2022-08-10T06:26:08.477Z,45.31
2022-08-10T06:28:56.063Z,45.09
2022-08-10T06:31:47.792Z,45.10
2022-08-10T06:34:23.897Z,44.88
2022-08-10T06:36:54.823Z,44.90
2022-08-10T06:39:39.325Z,44.81
2022-08-10T06:42:17.939Z,44.61
2022-08-10T06:44:56.644Z,44.57
2022-08-10T06:47:34.042Z,44.41
2022-08-10T06:50:13.474Z,44.28
2022-08-10T06:52:43.909Z,44.29
2022-08-10T06:55:16.893Z,44.20
2022-08-10T06:57:59.832Z,44.28
2022-08-10T07:00:34.535Z,44.27
2022-08-10T07:03:10.367Z,44.26
2022-08-10T07:05:51.042Z,44.24
2022-08-10T07:08:24.017Z,44.09
2022-08-10T07:10:54.354Z,43.99
2022-08-10T07:14:16.843Z,43.49
2022-08-10T07:16:14.740Z,43.55
2022-08-10T07:18:45.581Z,43.41
2022-08-10T07:21:15.043Z,43.22
2022-08-10T07:23:57.305Z,42.92
2022-08-10T07:26:29.944Z,41.88
2022-08-10T07:29:00.210Z,40.52
2022-08-10T07:31:55.597Z,38.79
2022-08-10T07:34:29.403Z,37.64
2022-08-10T07:37:04.674Z,36.92
2022-08-10T07:39:58.297Z,35.96
2022-08-10T07:42:31.173Z,35.16
2022-08-10T07:45:00.669Z,34.87
2022-08-10T07:47:53.987Z,34.36
2022-08-10T07:50:26.006Z,33.62
2022-08-10T07:52:58.166Z,33.36
2022-08-10T07:56:04.418Z,33.18
2022-08-10T07:58:17.350Z,32.59
2022-08-10T08:00:47.640Z,32.36
2022-08-10T08:03:22.051Z,32.56
2022-08-10T08:05:59.415Z,32.29
2022-08-10T08:08:33.237Z,32.18
2022-08-10T08:11:02.576Z,31.58
2022-08-10T08:13:31.667Z,31.44
2022-08-10T08:16:21.267Z,30.86
2022-08-10T08:19:26.355Z,30.94
2022-08-10T08:24:04.584Z,29.90
2022-08-10T08:24:38.128Z,29.59
2022-08-10T08:27:08.097Z,29.78
2022-08-10T08:29:40.346Z,29.11
2022-08-10T08:32:09.672Z,28.53
2022-08-10T08:34:43.698Z,28.38
2022-08-10T08:37:18.819Z,27.85
2022-08-10T08:40:08.967Z,27.58
2022-08-10T08:43:08.365Z,27.67
2022-08-10T08:46:01.936Z,27.31
2022-08-10T08:49:00.074Z,26.76
2022-08-10T08:52:06.277Z,26.40
2022-08-10T08:54:51.989Z,26.22
2022-08-10T08:57:49.788Z,25.83
2022-08-10T09:00:29.784Z,25.83
2022-08-10T09:03:28.570Z,25.74
2022-08-10T09:06:17.093Z,25.56
2022-08-10T09:09:22.671Z,25.00
2022-08-10T09:12:00.447Z,25.07
2022-08-10T09:14:38.261Z,24.45
2022-08-10T09:17:17.539Z,24.23
2022-08-10T09:19:52.845Z,24.43
2022-08-10T09:22:33.080Z,23.60
2022-08-10T09:25:17.826Z,23.69
2022-08-10T09:27:49.330Z,23.51
2022-08-10T09:30:38.675Z,22.78
2022-08-10T09:36:22.959Z,22.93
2022-08-10T09:36:27.712Z,22.33
2022-08-10T09:40:06.548Z,22.26
2022-08-10T09:42:14.612Z,22.08
2022-08-10T09:44:58.440Z,22.28
2022-08-10T09:48:01.196Z,21.92
2022-08-10T09:51:22.389Z,21.47
2022-08-10T09:53:45.037Z,21.51
2022-08-10T09:56:29.336Z,21.21
2022-08-10T09:59:29.247Z,21.36
2022-08-10T10:02:16.995Z,21.15
2022-08-10T10:04:55.845Z,20.89
2022-08-10T10:07:28.865Z,20.96
2022-08-10T10:10:04.696Z,20.72
2022-08-10T10:12:49.221Z,20.66
2022-08-10T10:15:32.938Z,21.02
2022-08-10T10:18:23.298Z,20.20
2022-08-10T10:21:04.275Z,20.69
2022-08-10T10:24:21.077Z,20.38
2022-08-10T10:26:51.716Z,19.85
2022-08-10T10:29:58.280Z,20.54
2022-08-10T10:32:39.433Z,20.15
2022-08-10T10:35:19.058Z,20.38
2022-08-10T10:38:10.165Z,19.64
2022-08-10T10:40:49.973Z,19.73
2022-08-10T10:43:39.973Z,19.42
2022-08-10T10:46:23.969Z,19.16
2022-08-10T10:49:04.585Z,19.70
2022-08-10T10:51:42.301Z,19.55
2022-08-10T10:54:17.167Z,19.14
2022-08-10T10:56:59.095Z,19.05
2022-08-10T10:59:55.641Z,18.92
2022-08-10T11:02:47.278Z,18.82
2022-08-10T11:05:28.269Z,18.67
2022-08-10T11:08:02.913Z,18.80
2022-08-10T11:10:46.207Z,18.67
2022-08-10T11:14:28.907Z,18.46
2022-08-10T11:16:36.653Z,18.53
2022-08-10T11:19:17.007Z,18.86
2022-08-10T11:22:02.549Z,18.58
2022-08-10T11:24:49.796Z,18.70
2022-08-10T11:27:31.604Z,18.45
2022-08-10T11:30:06.675Z,18.50
2022-08-10T11:32:51.548Z,17.81
2022-08-10T11:35:34.165Z,17.73
2022-08-10T11:38:30.391Z,17.95
2022-08-10T11:42:05.514Z,17.84
2022-08-10T11:44:10.361Z,17.60
2022-08-10T11:46:53.067Z,17.72
2022-08-10T11:49:32.325Z,17.85
2022-08-10T11:52:10.423Z,17.56
2022-08-10T11:54:44.921Z,17.59
2022-08-10T11:57:16.137Z,17.32
2022-08-10T11:59:58.579Z,17.56
2022-08-10T12:02:34.670Z,17.44
2022-08-10T12:05:09.566Z,17.08
2022-08-10T12:08:54.990Z,17.11
2022-08-10T12:10:40.710Z,16.91
2022-08-10T12:13:13.828Z,16.74
2022-08-10T12:15:54.588Z,17.02
2022-08-10T12:18:30.313Z,16.84
2022-08-10T12:21:04.056Z,16.88
2022-08-10T12:23:41.034Z,17.08
2022-08-10T12:26:17.619Z,17.00
2022-08-10T12:28:54.958Z,16.75
2022-08-10T12:31:30.750Z,16.46
2022-08-10T12:34:15.216Z,16.54
2022-08-10T12:36:46.167Z,16.56
2022-08-10T12:39:19.593Z,16.16
2022-08-10T12:41:58.224Z,16.10
2022-08-10T12:44:42.087Z,16.05
2022-08-10T12:47:21.783Z,16.27
2022-08-10T12:50:29.939Z,16.17
2022-08-10T12:53:06.497Z,16.08
2022-08-10T12:55:38.622Z,15.67
2022-08-10T12:58:59.303Z,15.60
2022-08-10T13:01:16.577Z,15.51
2022-08-10T13:04:23.371Z,15.54
2022-08-10T13:06:46.109Z,15.23
2022-08-10T13:09:15.309Z,15.30
2022-08-10T13:12:36.970Z,14.99
2022-08-10T13:14:48.438Z,15.06
2022-08-10T13:17:32.763Z,14.88
2022-08-10T13:20:20.905Z,15.16
2022-08-10T13:22:52.640Z,15.01
2022-08-10T13:25:29.576Z,15.14
2022-08-10T13:28:35.652Z,14.74
2022-08-10T13:30:56.569Z,14.86
2022-08-10T13:34:39.508Z,14.86
2022-08-10T13:36:25.257Z,14.67
2022-08-10T13:38:57.888Z,14.82
2022-08-10T13:41:31.458Z,14.71
2022-08-10T13:44:01.750Z,14.88
2022-08-10T13:46:32.857Z,14.96
2022-08-10T13:49:06.819Z,14.99
2022-08-10T13:51:54.291Z,14.61
2022-08-10T13:54:30.424Z,14.48
2022-08-10T13:57:00.321Z,14.69
2022-08-10T14:00:33.860Z,14.25
2022-08-10T14:02:29.736Z,14.59
2022-08-10T14:04:59.814Z,14.76
2022-08-10T14:07:29.942Z,14.91
2022-08-10T14:10:07.015Z,14.98
2022-08-10T14:12:38.605Z,14.69
2022-08-10T14:15:14.445Z,14.09
2022-08-10T14:17:47.858Z,14.55
2022-08-10T14:20:21.745Z,14.29
2022-08-10T14:22:50.704Z,13.97
2022-08-10T14:25:19.174Z,14.00
2022-08-10T14:28:01.841Z,14.16
2022-08-10T14:30:34.183Z,14.08
2022-08-10T14:33:05.262Z,14.16
2022-08-10T14:36:20.553Z,14.73
2022-08-10T14:38:31.004Z,14.91
2022-08-10T14:41:03.297Z,15.22
2022-08-10T14:43:41.654Z,15.55
2022-08-10T14:46:19.594Z,15.77
2022-08-10T14:48:52.385Z,15.79
2022-08-10T14:51:27.796Z,16.51
2022-08-10T14:54:15.911Z,16.61
2022-08-10T14:56:48.968Z,17.20
2022-08-10T14:59:20.297Z,16.71
2022-08-10T15:02:00.287Z,17.57
2022-08-10T15:04:52.801Z,17.11
2022-08-10T15:07:24.229Z,16.75
2022-08-10T15:10:00.286Z,16.20
2022-08-10T15:12:35.940Z,16.34
2022-08-10T15:15:10.464Z,15.66
2022-08-10T15:17:43.172Z,15.56
2022-08-10T15:20:20.717Z,15.18
2022-08-10T15:22:52.992Z,15.00
2022-08-10T15:25:26.074Z,14.48
2022-08-10T15:28:05.686Z,14.69
2022-08-10T15:30:42.782Z,14.53
2022-08-10T15:34:01.915Z,14.45
2022-08-10T15:36:41.778Z,14.23
2022-08-10T15:40:21.672Z,13.93
2022-08-10T15:42:09.661Z,13.98
2022-08-10T15:44:41.433Z,13.93
2022-08-10T15:47:15.473Z,14.13
2022-08-10T15:49:54.510Z,14.03
2022-08-10T15:52:39.653Z,14.32
2022-08-10T15:55:43.571Z,14.19
2022-08-10T15:58:20.231Z,14.22
2022-08-10T16:02:04.724Z,14.45
2022-08-10T16:04:09.068Z,14.45
2022-08-10T16:06:44.547Z,14.01
2022-08-10T16:10:22.195Z,14.37
2022-08-10T16:12:30.050Z,14.31
2022-08-10T16:15:03.226Z,14.11
2022-08-10T16:17:54.597Z,14.74
2022-08-10T16:20:31.331Z,14.83
2022-08-10T16:23:06.533Z,14.52
2022-08-10T16:25:47.871Z,14.67
2022-08-10T16:28:23.686Z,14.54
2022-08-10T16:30:56.027Z,14.60
2022-08-10T16:33:54.288Z,14.57
2022-08-10T16:36:18.432Z,14.56
2022-08-10T16:38:51.384Z,14.47
2022-08-10T16:42:02.623Z,14.86
2022-08-10T16:44:14.858Z,14.87
2022-08-10T16:46:45.734Z,14.91
2022-08-10T16:49:16.230Z,14.85
2022-08-10T16:51:48.929Z,15.01
2022-08-10T16:54:26.835Z,15.14
2022-08-10T16:57:01.681Z,14.96
2022-08-10T16:59:31.797Z,15.16
2022-08-10T17:02:02.646Z,14.88
2022-08-10T17:04:32.886Z,15.41
2022-08-10T17:07:07.269Z,15.14
2022-08-10T17:09:38.666Z,15.32
2022-08-10T17:12:11.845Z,15.52
2022-08-10T17:14:43.334Z,15.59
2022-08-10T17:17:19.659Z,15.61
2022-08-10T17:19:49.501Z,15.60
2022-08-10T17:22:21.060Z,15.63
2022-08-10T17:24:56.161Z,16.19
2022-08-10T17:28:04.599Z,16.87
2022-08-10T17:30:35.442Z,16.58
2022-08-10T17:33:13.356Z,17.40
2022-08-10T17:35:52.777Z,17.33
2022-08-10T17:38:24.483Z,17.21
2022-08-10T17:41:05.173Z,17.52
2022-08-10T17:44:00.788Z,17.73
2022-08-10T17:46:28.398Z,17.64
2022-08-10T17:48:57.478Z,17.81
2022-08-10T17:51:30.744Z,17.84
2022-08-10T17:54:01.490Z,18.02
2022-08-10T17:56:34.614Z,18.19
2022-08-10T17:59:17.256Z,18.50
2022-08-10T18:01:58.711Z,18.75
2022-08-10T18:04:42.003Z,19.06
2022-08-10T18:07:13.450Z,19.59
2022-08-10T18:09:49.653Z,19.86
2022-08-10T18:12:32.028Z,20.02
2022-08-10T18:15:13.635Z,19.99
2022-08-10T18:17:47.025Z,20.48
2022-08-10T18:20:20.083Z,20.62
2022-08-10T18:22:57.197Z,20.93
2022-08-10T18:25:32.016Z,21.55
2022-08-10T18:28:05.503Z,21.58
2022-08-10T18:30:45.817Z,21.60
2022-08-10T18:33:16.087Z,22.22
2022-08-10T18:35:47.302Z,22.49
2022-08-10T18:38:17.609Z,22.45
2022-08-10T18:40:54.377Z,22.54
2022-08-10T18:44:07.361Z,22.66
2022-08-10T18:46:27.132Z,22.86
2022-08-10T18:49:04.445Z,23.10
2022-08-10T18:51:46.385Z,23.36
2022-08-10T18:54:38.838Z,23.37
2022-08-10T18:57:18.833Z,23.49
2022-08-10T19:00:07.838Z,23.56
2022-08-10T19:03:06.150Z,23.69
2022-08-10T19:05:58.040Z,23.94
2022-08-10T19:09:04.875Z,24.20
2022-08-10T19:12:30.838Z,24.03
2022-08-10T19:15:14.728Z,24.58
2022-08-10T19:18:05.615Z,24.59
2022-08-10T19:20:43.259Z,24.95
2022-08-10T19:23:31.312Z,24.77
2022-08-10T19:26:41.367Z,25.05
2022-08-10T19:30:10.935Z,25.14
2022-08-10T19:32:29.105Z,25.07
2022-08-10T19:35:08.576Z,25.30
2022-08-10T19:38:00.359Z,25.35
2022-08-10T19:40:44.827Z,25.43
2022-08-10T19:43:59.520Z,25.73
2022-08-10T19:46:33.332Z,25.51
2022-08-10T19:49:13.494Z,26.06
2022-08-10T19:51:56.722Z,25.99
2022-08-10T19:54:34.901Z,26.30
2022-08-10T19:57:13.782Z,26.54
2022-08-10T20:00:15.846Z,26.48
2022-08-10T20:02:58.311Z,26.61
2022-08-10T20:05:34.225Z,27.05
2022-08-10T20:08:19.536Z,26.98
2022-08-10T20:10:58.058Z,27.22
2022-08-10T20:13:34.945Z,27.13
2022-08-10T20:16:12.375Z,27.47
2022-08-10T20:18:48.461Z,27.55
2022-08-10T20:21:28.715Z,27.51
2022-08-10T20:24:09.473Z,27.82
2022-08-10T20:26:52.478Z,28.06
2022-08-10T20:29:58.638Z,28.15
2022-08-10T20:32:25.910Z,28.25
2022-08-10T20:35:07.237Z,28.24
2022-08-10T20:38:02.833Z,28.24
2022-08-10T20:40:44.290Z,28.25
2022-08-10T20:43:23.309Z,28.57
2022-08-10T20:46:10.899Z,28.77
2022-08-10T20:48:47.332Z,28.43
2022-08-10T20:51:22.046Z,29.14
2022-08-10T20:53:53.639Z,28.86
2022-08-10T20:56:48.259Z,28.78
2022-08-10T21:00:03.973Z,28.98
2022-08-10T21:02:57.883Z,28.90
2022-08-10T21:05:34.530Z,29.45
2022-08-10T21:08:17.836Z,29.28
2022-08-10T21:11:06.010Z,29.41
2022-08-10T21:14:21.046Z,29.36
2022-08-10T21:17:16.903Z,29.56
2022-08-10T21:20:15.501Z,29.82
2022-08-10T21:22:47.758Z,30.07
2022-08-10T21:25:29.662Z,29.68
2022-08-10T21:28:35.393Z,30.09
2022-08-10T21:31:37.244Z,30.09
2022-08-10T21:34:32.321Z,30.34
2022-08-10T21:37:08.261Z,30.03
2022-08-10T21:39:58.245Z,30.26
2022-08-10T21:43:02.223Z,30.49
2022-08-10T21:46:04.401Z,30.56
2022-08-10T21:49:03.175Z,31.15
2022-08-10T21:52:03.839Z,31.01
2022-08-10T21:55:00.530Z,31.25
2022-08-10T21:58:05.161Z,31.44
2022-08-10T22:00:56.454Z,31.47
2022-08-10T22:03:43.133Z,31.74
2022-08-10T22:06:33.655Z,31.67
2022-08-10T22:09:26.595Z,32.03
2022-08-10T22:12:25.070Z,32.20
2022-08-10T22:16:01.546Z,32.18
2022-08-10T22:18:33.308Z,32.30
2022-08-10T22:21:45.357Z,32.45
2022-08-10T22:24:45.561Z,32.73
2022-08-10T22:27:48.004Z,32.62
2022-08-10T22:30:36.966Z,32.82
2022-08-10T22:33:42.413Z,32.90
2022-08-10T22:37:08.227Z,33.00
2022-08-10T22:40:16.761Z,33.04
2022-08-10T22:43:10.654Z,33.19
2022-08-10T22:46:07.285Z,33.23
2022-08-10T22:49:01.751Z,33.12
2022-08-10T22:51:48.985Z,33.38
2022-08-10T22:54:44.710Z,33.42
2022-08-10T22:57:32.906Z,34.05
2022-08-10T23:00:15.166Z,33.62
2022-08-10T23:02:51.887Z,34.08
2022-08-10T23:05:32.191Z,33.97
2022-08-10T23:08:10.749Z,34.44
2022-08-10T23:10:50.389Z,34.63
2022-08-10T23:13:35.600Z,34.57
2022-08-10T23:16:28.351Z,35.00
2022-08-10T23:19:09.782Z,35.19
2022-08-10T23:22:04.048Z,35.11
2022-08-10T23:24:40.669Z,35.35
2022-08-10T23:27:13.187Z,35.68
2022-08-10T23:30:09.694Z,35.88
2022-08-10T23:32:43.698Z,35.89
2022-08-10T23:36:29.414Z,36.14
2022-08-10T23:38:06.966Z,36.06
2022-08-10T23:40:37.654Z,36.23
2022-08-10T23:43:07.848Z,36.52
2022-08-10T23:45:53.956Z,36.72
2022-08-10T23:48:26.723Z,36.62
2022-08-10T23:51:00.159Z,36.99
2022-08-10T23:53:32.679Z,36.89
2022-08-10T23:56:08.988Z,37.12
2022-08-10T23:58:43.060Z,37.26
